sensor_id;sensor_type;location;lat;lon;timestamp;P1;durP1;ratioP1;P2;durP2;ratioP2
74551;SDS011;63025;55.472;38.432;2023-03-04T00:01:35;24.55;;;10.70;;
74551;SDS011;63025;55.472;38.432;2023-03-04T00:04:01;19.30;;;9.30;;
74551;SDS011;63025;55.472;38.432;2023-03-04T00:06:27;25.55;;;11.80;;
74551;SDS011;63025;55.472;38.432;2023-03-04T00:08:52;27.98;;;13.13;;
74551;SDS011;63025;55.472;38.432;2023-03-04T00:11:18;29.92;;;13.93;;
74551;SDS011;63025;55.472;38.432;2023-03-04T00:13:44;39.58;;;19.10;;
74551;SDS011;63025;55.472;38.432;2023-03-04T00:16:10;26.30;;;11.32;;
74551;SDS011;63025;55.472;38.432;2023-03-04T00:18:35;26.90;;;13.13;;
74551;SDS011;63025;55.472;38.432;2023-03-04T00:21:01;24.30;;;11.15;;
74551;SDS011;63025;55.472;38.432;2023-03-04T00:23:27;29.10;;;12.98;;
74551;SDS011;63025;55.472;38.432;2023-03-04T00:25:52;30.98;;;13.73;;
74551;SDS011;63025;55.472;38.432;2023-03-04T00:28:18;27.23;;;12.30;;
74551;SDS011;63025;55.472;38.432;2023-03-04T00:30:44;29.92;;;11.60;;
74551;SDS011;63025;55.472;38.432;2023-03-04T00:33:10;26.48;;;13.18;;
74551;SDS011;63025;55.472;38.432;2023-03-04T00:35:35;28.25;;;12.80;;
74551;SDS011;63025;55.472;38.432;2023-03-04T00:38:01;24.92;;;12.13;;
74551;SDS011;63025;55.472;38.432;2023-03-04T00:40:27;20.45;;;8.43;;
74551;SDS011;63025;55.472;38.432;2023-03-04T00:42:53;17.92;;;9.95;;
74551;SDS011;63025;55.472;38.432;2023-03-04T00:45:18;21.58;;;10.63;;
74551;SDS011;63025;55.472;38.432;2023-03-04T00:47:44;24.15;;;12.27;;
74551;SDS011;63025;55.472;38.432;2023-03-04T00:50:10;27.48;;;14.27;;
74551;SDS011;63025;55.472;38.432;2023-03-04T00:52:36;26.27;;;13.35;;
74551;SDS011;63025;55.472;38.432;2023-03-04T00:55:02;23.35;;;10.77;;
74551;SDS011;63025;55.472;38.432;2023-03-04T00:57:29;29.08;;;12.30;;
74551;SDS011;63025;55.472;38.432;2023-03-04T00:59:54;23.85;;;11.77;;
74551;SDS011;63025;55.472;38.432;2023-03-04T01:02:20;29.10;;;13.48;;
74551;SDS011;63025;55.472;38.432;2023-03-04T01:04:46;24.00;;;11.27;;
74551;SDS011;63025;55.472;38.432;2023-03-04T01:07:11;23.08;;;10.95;;
74551;SDS011;63025;55.472;38.432;2023-03-04T01:09:37;28.30;;;12.07;;
74551;SDS011;63025;55.472;38.432;2023-03-04T01:12:03;30.15;;;11.85;;
74551;SDS011;63025;55.472;38.432;2023-03-04T01:14:28;34.47;;;12.32;;
74551;SDS011;63025;55.472;38.432;2023-03-04T01:16:54;24.27;;;11.48;;
74551;SDS011;63025;55.472;38.432;2023-03-04T01:19:20;25.63;;;12.10;;
74551;SDS011;63025;55.472;38.432;2023-03-04T01:21:46;31.85;;;13.40;;
74551;SDS011;63025;55.472;38.432;2023-03-04T01:24:11;21.35;;;10.05;;
74551;SDS011;63025;55.472;38.432;2023-03-04T01:26:39;28.23;;;11.25;;
74551;SDS011;63025;55.472;38.432;2023-03-04T01:29:05;24.15;;;11.18;;
74551;SDS011;63025;55.472;38.432;2023-03-04T01:31:31;25.88;;;10.13;;
74551;SDS011;63025;55.472;38.432;2023-03-04T01:33:56;28.50;;;12.32;;
74551;SDS011;63025;55.472;38.432;2023-03-04T01:36:22;23.55;;;10.75;;
74551;SDS011;63025;55.472;38.432;2023-03-04T01:38:48;22.02;;;10.35;;
74551;SDS011;63025;55.472;38.432;2023-03-04T01:41:14;21.75;;;10.60;;
74551;SDS011;63025;55.472;38.432;2023-03-04T01:43:43;21.67;;;10.30;;
74551;SDS011;63025;55.472;38.432;2023-03-04T01:46:10;21.30;;;9.40;;
74551;SDS011;63025;55.472;38.432;2023-03-04T01:48:39;20.40;;;9.32;;
74551;SDS011;63025;55.472;38.432;2023-03-04T01:51:09;18.15;;;8.65;;
74551;SDS011;63025;55.472;38.432;2023-03-04T01:53:37;19.85;;;9.00;;
74551;SDS011;63025;55.472;38.432;2023-03-04T01:58:44;20.02;;;9.05;;
74551;SDS011;63025;55.472;38.432;2023-03-04T02:01:25;19.15;;;8.18;;
74551;SDS011;63025;55.472;38.432;2023-03-04T02:03:51;16.30;;;7.80;;
74551;SDS011;63025;55.472;38.432;2023-03-04T02:06:17;16.35;;;7.13;;
74551;SDS011;63025;55.472;38.432;2023-03-04T02:08:42;18.60;;;8.52;;
74551;SDS011;63025;55.472;38.432;2023-03-04T02:11:08;16.90;;;7.68;;
74551;SDS011;63025;55.472;38.432;2023-03-04T02:13:34;19.50;;;8.20;;
74551;SDS011;63025;55.472;38.432;2023-03-04T02:16:01;18.30;;;8.25;;
74551;SDS011;63025;55.472;38.432;2023-03-04T02:18:27;18.20;;;8.65;;
74551;SDS011;63025;55.472;38.432;2023-03-04T02:23:45;20.30;;;9.07;;
74551;SDS011;63025;55.472;38.432;2023-03-04T02:28:39;22.95;;;8.77;;
74551;SDS011;63025;55.472;38.432;2023-03-04T02:31:06;22.10;;;8.82;;
74551;SDS011;63025;55.472;38.432;2023-03-04T02:33:33;20.92;;;9.48;;
74551;SDS011;63025;55.472;38.432;2023-03-04T02:35:59;18.40;;;8.82;;
74551;SDS011;63025;55.472;38.432;2023-03-04T02:38:25;19.27;;;8.60;;
74551;SDS011;63025;55.472;38.432;2023-03-04T02:40:50;26.33;;;9.98;;
74551;SDS011;63025;55.472;38.432;2023-03-04T02:43:19;19.90;;;8.45;;
74551;SDS011;63025;55.472;38.432;2023-03-04T02:45:49;25.75;;;9.05;;
74551;SDS011;63025;55.472;38.432;2023-03-04T02:48:17;19.45;;;8.85;;
74551;SDS011;63025;55.472;38.432;2023-03-04T02:50:46;27.23;;;9.32;;
74551;SDS011;63025;55.472;38.432;2023-03-04T02:53:14;25.48;;;8.70;;
74551;SDS011;63025;55.472;38.432;2023-03-04T02:55:40;21.23;;;8.82;;
74551;SDS011;63025;55.472;38.432;2023-03-04T02:58:09;23.38;;;9.60;;
74551;SDS011;63025;55.472;38.432;2023-03-04T03:00:36;23.50;;;10.07;;
74551;SDS011;63025;55.472;38.432;2023-03-04T03:03:03;22.02;;;9.10;;
74551;SDS011;63025;55.472;38.432;2023-03-04T03:05:30;22.95;;;9.30;;
74551;SDS011;63025;55.472;38.432;2023-03-04T03:07:57;19.02;;;9.13;;
74551;SDS011;63025;55.472;38.432;2023-03-04T03:10:23;20.90;;;8.82;;
74551;SDS011;63025;55.472;38.432;2023-03-04T03:12:49;21.25;;;9.48;;
74551;SDS011;63025;55.472;38.432;2023-03-04T03:15:16;26.67;;;10.23;;
74551;SDS011;63025;55.472;38.432;2023-03-04T03:17:42;26.67;;;10.77;;
74551;SDS011;63025;55.472;38.432;2023-03-04T03:20:08;21.58;;;9.77;;
74551;SDS011;63025;55.472;38.432;2023-03-04T03:22:36;21.75;;;8.50;;
74551;SDS011;63025;55.472;38.432;2023-03-04T03:25:02;19.85;;;8.85;;
74551;SDS011;63025;55.472;38.432;2023-03-04T03:27:29;21.63;;;8.63;;
74551;SDS011;63025;55.472;38.432;2023-03-04T03:29:55;26.50;;;10.10;;
74551;SDS011;63025;55.472;38.432;2023-03-04T03:32:21;29.85;;;11.50;;
74551;SDS011;63025;55.472;38.432;2023-03-04T03:34:49;23.10;;;9.98;;
74551;SDS011;63025;55.472;38.432;2023-03-04T03:37:16;21.58;;;9.73;;
74551;SDS011;63025;55.472;38.432;2023-03-04T03:39:42;25.13;;;10.38;;
74551;SDS011;63025;55.472;38.432;2023-03-04T03:42:08;26.63;;;10.18;;
74551;SDS011;63025;55.472;38.432;2023-03-04T03:44:34;23.67;;;9.88;;
74551;SDS011;63025;55.472;38.432;2023-03-04T03:47:00;19.60;;;9.52;;
74551;SDS011;63025;55.472;38.432;2023-03-04T03:49:26;22.45;;;8.63;;
74551;SDS011;63025;55.472;38.432;2023-03-04T03:51:52;21.10;;;9.68;;
74551;SDS011;63025;55.472;38.432;2023-03-04T03:54:17;21.33;;;9.63;;
74551;SDS011;63025;55.472;38.432;2023-03-04T03:56:43;19.50;;;8.35;;
74551;SDS011;63025;55.472;38.432;2023-03-04T03:59:09;22.05;;;9.73;;
74551;SDS011;63025;55.472;38.432;2023-03-04T04:01:35;24.70;;;10.00;;
74551;SDS011;63025;55.472;38.432;2023-03-04T04:04:01;27.58;;;10.57;;
74551;SDS011;63025;55.472;38.432;2023-03-04T04:06:27;22.23;;;9.88;;
74551;SDS011;63025;55.472;38.432;2023-03-04T04:08:53;27.38;;;10.65;;
74551;SDS011;63025;55.472;38.432;2023-03-04T04:11:18;23.98;;;10.27;;
74551;SDS011;63025;55.472;38.432;2023-03-04T04:13:44;24.15;;;10.27;;
74551;SDS011;63025;55.472;38.432;2023-03-04T04:16:10;28.60;;;10.93;;
74551;SDS011;63025;55.472;38.432;2023-03-04T04:18:36;23.55;;;10.45;;
74551;SDS011;63025;55.472;38.432;2023-03-04T04:21:02;25.42;;;10.68;;
74551;SDS011;63025;55.472;38.432;2023-03-04T04:23:28;26.80;;;10.85;;
74551;SDS011;63025;55.472;38.432;2023-03-04T04:25:55;24.77;;;11.05;;
74551;SDS011;63025;55.472;38.432;2023-03-04T04:28:21;27.50;;;11.18;;
74551;SDS011;63025;55.472;38.432;2023-03-04T04:30:47;33.58;;;16.38;;
74551;SDS011;63025;55.472;38.432;2023-03-04T04:33:13;23.50;;;10.55;;
74551;SDS011;63025;55.472;38.432;2023-03-04T04:35:39;22.67;;;10.52;;
74551;SDS011;63025;55.472;38.432;2023-03-04T04:38:05;23.73;;;9.65;;
74551;SDS011;63025;55.472;38.432;2023-03-04T04:40:32;24.60;;;11.48;;
74551;SDS011;63025;55.472;38.432;2023-03-04T04:42:58;25.05;;;10.05;;
74551;SDS011;63025;55.472;38.432;2023-03-04T04:45:24;26.65;;;10.82;;
74551;SDS011;63025;55.472;38.432;2023-03-04T04:47:50;26.15;;;11.98;;
74551;SDS011;63025;55.472;38.432;2023-03-04T04:50:16;28.92;;;11.45;;
74551;SDS011;63025;55.472;38.432;2023-03-04T04:52:42;27.10;;;11.35;;
74551;SDS011;63025;55.472;38.432;2023-03-04T04:55:08;21.42;;;10.00;;
74551;SDS011;63025;55.472;38.432;2023-03-04T04:57:34;23.25;;;10.43;;
74551;SDS011;63025;55.472;38.432;2023-03-04T05:00:00;20.23;;;10.20;;
74551;SDS011;63025;55.472;38.432;2023-03-04T05:02:25;20.90;;;9.40;;
74551;SDS011;63025;55.472;38.432;2023-03-04T05:04:51;22.80;;;9.73;;
74551;SDS011;63025;55.472;38.432;2023-03-04T05:07:17;18.63;;;9.13;;
74551;SDS011;63025;55.472;38.432;2023-03-04T05:09:43;23.02;;;8.88;;
74551;SDS011;63025;55.472;38.432;2023-03-04T05:12:10;18.45;;;8.52;;
74551;SDS011;63025;55.472;38.432;2023-03-04T05:14:36;16.67;;;7.82;;
74551;SDS011;63025;55.472;38.432;2023-03-04T05:17:01;18.00;;;7.95;;
74551;SDS011;63025;55.472;38.432;2023-03-04T05:19:27;15.70;;;7.70;;
74551;SDS011;63025;55.472;38.432;2023-03-04T05:21:53;15.57;;;7.88;;
74551;SDS011;63025;55.472;38.432;2023-03-04T05:24:19;16.23;;;7.45;;
74551;SDS011;63025;55.472;38.432;2023-03-04T05:26:44;18.75;;;8.40;;
74551;SDS011;63025;55.472;38.432;2023-03-04T05:29:10;15.38;;;6.65;;
74551;SDS011;63025;55.472;38.432;2023-03-04T05:31:36;14.65;;;7.45;;
74551;SDS011;63025;55.472;38.432;2023-03-04T05:34:01;13.88;;;7.60;;
74551;SDS011;63025;55.472;38.432;2023-03-04T05:36:28;13.63;;;7.35;;
74551;SDS011;63025;55.472;38.432;2023-03-04T05:38:53;15.48;;;6.90;;
74551;SDS011;63025;55.472;38.432;2023-03-04T05:41:19;13.00;;;7.10;;
74551;SDS011;63025;55.472;38.432;2023-03-04T05:43:47;13.25;;;7.00;;
74551;SDS011;63025;55.472;38.432;2023-03-04T05:46:14;14.50;;;7.13;;
74551;SDS011;63025;55.472;38.432;2023-03-04T05:48:43;12.68;;;6.82;;
74551;SDS011;63025;55.472;38.432;2023-03-04T05:51:09;14.45;;;6.68;;
74551;SDS011;63025;55.472;38.432;2023-03-04T05:53:35;12.98;;;6.78;;
74551;SDS011;63025;55.472;38.432;2023-03-04T05:56:08;11.32;;;5.65;;
74551;SDS011;63025;55.472;38.432;2023-03-04T05:58:35;10.18;;;5.93;;
74551;SDS011;63025;55.472;38.432;2023-03-04T06:01:01;12.63;;;5.38;;
74551;SDS011;63025;55.472;38.432;2023-03-04T06:03:28;12.30;;;5.47;;
74551;SDS011;63025;55.472;38.432;2023-03-04T06:05:54;13.65;;;5.38;;
74551;SDS011;63025;55.472;38.432;2023-03-04T06:08:20;9.77;;;4.82;;
74551;SDS011;63025;55.472;38.432;2023-03-04T06:10:45;10.68;;;4.80;;
74551;SDS011;63025;55.472;38.432;2023-03-04T06:13:11;10.70;;;4.63;;
74551;SDS011;63025;55.472;38.432;2023-03-04T06:15:38;9.77;;;5.07;;
74551;SDS011;63025;55.472;38.432;2023-03-04T06:18:05;9.27;;;4.55;;
74551;SDS011;63025;55.472;38.432;2023-03-04T06:20:31;10.38;;;4.28;;
74551;SDS011;63025;55.472;38.432;2023-03-04T06:22:57;10.77;;;5.18;;
74551;SDS011;63025;55.472;38.432;2023-03-04T06:25:23;8.02;;;3.92;;
74551;SDS011;63025;55.472;38.432;2023-03-04T06:27:49;7.35;;;4.00;;
74551;SDS011;63025;55.472;38.432;2023-03-04T06:30:15;9.65;;;3.63;;
74551;SDS011;63025;55.472;38.432;2023-03-04T06:32:41;8.73;;;4.15;;
74551;SDS011;63025;55.472;38.432;2023-03-04T06:35:09;6.80;;;3.47;;
74551;SDS011;63025;55.472;38.432;2023-03-04T06:37:36;7.05;;;3.20;;
74551;SDS011;63025;55.472;38.432;2023-03-04T06:40:02;5.38;;;2.83;;
74551;SDS011;63025;55.472;38.432;2023-03-04T06:42:28;6.15;;;3.22;;
74551;SDS011;63025;55.472;38.432;2023-03-04T06:44:54;8.05;;;3.13;;
74551;SDS011;63025;55.472;38.432;2023-03-04T06:47:20;9.48;;;3.38;;
74551;SDS011;63025;55.472;38.432;2023-03-04T06:49:46;6.95;;;3.20;;
74551;SDS011;63025;55.472;38.432;2023-03-04T06:52:11;6.43;;;3.00;;
74551;SDS011;63025;55.472;38.432;2023-03-04T06:54:37;6.72;;;3.10;;
74551;SDS011;63025;55.472;38.432;2023-03-04T06:57:04;4.90;;;2.63;;
74551;SDS011;63025;55.472;38.432;2023-03-04T06:59:31;4.93;;;2.65;;
74551;SDS011;63025;55.472;38.432;2023-03-04T07:01:56;6.63;;;3.30;;
74551;SDS011;63025;55.472;38.432;2023-03-04T07:04:22;5.82;;;2.92;;
74551;SDS011;63025;55.472;38.432;2023-03-04T07:06:49;5.18;;;2.70;;
74551;SDS011;63025;55.472;38.432;2023-03-04T07:09:15;6.72;;;2.97;;
74551;SDS011;63025;55.472;38.432;2023-03-04T07:11:41;7.53;;;2.83;;
74551;SDS011;63025;55.472;38.432;2023-03-04T07:14:07;4.97;;;2.47;;
74551;SDS011;63025;55.472;38.432;2023-03-04T07:16:33;4.88;;;2.63;;
74551;SDS011;63025;55.472;38.432;2023-03-04T07:18:59;6.55;;;2.88;;
74551;SDS011;63025;55.472;38.432;2023-03-04T07:21:27;5.63;;;2.90;;
74551;SDS011;63025;55.472;38.432;2023-03-04T07:23:53;7.03;;;2.80;;
74551;SDS011;63025;55.472;38.432;2023-03-04T07:26:19;6.15;;;2.92;;
74551;SDS011;63025;55.472;38.432;2023-03-04T07:28:44;5.18;;;2.60;;
74551;SDS011;63025;55.472;38.432;2023-03-04T07:31:23;5.45;;;2.65;;
74551;SDS011;63025;55.472;38.432;2023-03-04T07:36:24;4.85;;;2.17;;
74551;SDS011;63025;55.472;38.432;2023-03-04T07:38:50;3.60;;;2.20;;
74551;SDS011;63025;55.472;38.432;2023-03-04T07:41:19;4.55;;;2.25;;
74551;SDS011;63025;55.472;38.432;2023-03-04T07:43:46;5.55;;;2.60;;
74551;SDS011;63025;55.472;38.432;2023-03-04T07:46:12;6.15;;;2.60;;
74551;SDS011;63025;55.472;38.432;2023-03-04T07:48:38;5.47;;;2.53;;
74551;SDS011;63025;55.472;38.432;2023-03-04T07:51:11;5.32;;;2.50;;
74551;SDS011;63025;55.472;38.432;2023-03-04T07:53:40;5.60;;;2.75;;
74551;SDS011;63025;55.472;38.432;2023-03-04T07:56:09;5.32;;;2.90;;
74551;SDS011;63025;55.472;38.432;2023-03-04T07:58:40;6.30;;;2.85;;
74551;SDS011;63025;55.472;38.432;2023-03-04T08:01:16;4.68;;;2.80;;
74551;SDS011;63025;55.472;38.432;2023-03-04T08:03:44;5.13;;;3.10;;
74551;SDS011;63025;55.472;38.432;2023-03-04T08:06:11;5.90;;;3.13;;
74551;SDS011;63025;55.472;38.432;2023-03-04T08:08:39;6.38;;;2.70;;
74551;SDS011;63025;55.472;38.432;2023-03-04T08:11:06;5.70;;;3.25;;
74551;SDS011;63025;55.472;38.432;2023-03-04T08:13:34;4.25;;;2.90;;
74551;SDS011;63025;55.472;38.432;2023-03-04T08:16:00;4.40;;;2.92;;
74551;SDS011;63025;55.472;38.432;2023-03-04T08:18:26;6.22;;;3.50;;
74551;SDS011;63025;55.472;38.432;2023-03-04T08:20:52;6.60;;;3.72;;
74551;SDS011;63025;55.472;38.432;2023-03-04T08:23:18;6.30;;;3.30;;
74551;SDS011;63025;55.472;38.432;2023-03-04T08:25:45;5.78;;;3.00;;
74551;SDS011;63025;55.472;38.432;2023-03-04T08:28:11;5.82;;;3.15;;
74551;SDS011;63025;55.472;38.432;2023-03-04T08:30:39;5.65;;;3.20;;
74551;SDS011;63025;55.472;38.432;2023-03-04T08:33:06;6.07;;;3.33;;
74551;SDS011;63025;55.472;38.432;2023-03-04T08:35:32;5.68;;;3.03;;
74551;SDS011;63025;55.472;38.432;2023-03-04T08:38:02;10.07;;;3.67;;
74551;SDS011;63025;55.472;38.432;2023-03-04T08:40:27;6.47;;;3.50;;
74551;SDS011;63025;55.472;38.432;2023-03-04T08:42:55;7.05;;;3.20;;
74551;SDS011;63025;55.472;38.432;2023-03-04T08:45:21;6.93;;;3.15;;
74551;SDS011;63025;55.472;38.432;2023-03-04T08:47:47;4.75;;;3.10;;
74551;SDS011;63025;55.472;38.432;2023-03-04T08:50:13;4.80;;;2.90;;
74551;SDS011;63025;55.472;38.432;2023-03-04T08:52:38;6.18;;;3.50;;
74551;SDS011;63025;55.472;38.432;2023-03-04T08:55:04;6.70;;;3.42;;
74551;SDS011;63025;55.472;38.432;2023-03-04T08:57:30;6.80;;;3.30;;
74551;SDS011;63025;55.472;38.432;2023-03-04T08:59:56;7.40;;;3.20;;
74551;SDS011;63025;55.472;38.432;2023-03-04T09:02:21;6.35;;;3.20;;
74551;SDS011;63025;55.472;38.432;2023-03-04T09:04:47;8.32;;;3.33;;
74551;SDS011;63025;55.472;38.432;2023-03-04T09:07:13;6.20;;;3.90;;
74551;SDS011;63025;55.472;38.432;2023-03-04T09:09:39;7.18;;;3.30;;
74551;SDS011;63025;55.472;38.432;2023-03-04T09:12:05;4.07;;;2.50;;
74551;SDS011;63025;55.472;38.432;2023-03-04T09:14:32;5.97;;;3.00;;
74551;SDS011;63025;55.472;38.432;2023-03-04T09:17:00;5.85;;;2.88;;
74551;SDS011;63025;55.472;38.432;2023-03-04T09:19:27;12.30;;;5.32;;
74551;SDS011;63025;55.472;38.432;2023-03-04T09:21:53;5.72;;;2.90;;
74551;SDS011;63025;55.472;38.432;2023-03-04T09:24:20;5.15;;;2.72;;
74551;SDS011;63025;55.472;38.432;2023-03-04T09:26:49;5.70;;;2.60;;
74551;SDS011;63025;55.472;38.432;2023-03-04T09:29:16;5.82;;;2.80;;
74551;SDS011;63025;55.472;38.432;2023-03-04T09:31:42;7.00;;;3.00;;
74551;SDS011;63025;55.472;38.432;2023-03-04T09:34:07;4.60;;;2.50;;
74551;SDS011;63025;55.472;38.432;2023-03-04T09:36:35;5.40;;;2.83;;
74551;SDS011;63025;55.472;38.432;2023-03-04T09:39:01;6.22;;;2.78;;
74551;SDS011;63025;55.472;38.432;2023-03-04T09:46:47;6.15;;;2.80;;
74551;SDS011;63025;55.472;38.432;2023-03-04T09:49:15;5.50;;;3.15;;
74551;SDS011;63025;55.472;38.432;2023-03-04T09:58:00;4.00;;;2.40;;
74551;SDS011;63025;55.472;38.432;2023-03-04T10:01:07;4.22;;;2.50;;
74551;SDS011;63025;55.472;38.432;2023-03-04T10:06:11;5.15;;;3.42;;
74551;SDS011;63025;55.472;38.432;2023-03-04T10:08:45;5.07;;;2.55;;
74551;SDS011;63025;55.472;38.432;2023-03-04T10:11:39;6.97;;;3.28;;
74551;SDS011;63025;55.472;38.432;2023-03-04T10:27:48;5.70;;;3.15;;
74551;SDS011;63025;55.472;38.432;2023-03-04T10:30:47;6.82;;;3.28;;
74551;SDS011;63025;55.472;38.432;2023-03-04T10:33:37;5.80;;;3.13;;
74551;SDS011;63025;55.472;38.432;2023-03-04T10:38:47;5.43;;;3.15;;
74551;SDS011;63025;55.472;38.432;2023-03-04T10:41:14;7.20;;;3.20;;
74551;SDS011;63025;55.472;38.432;2023-03-04T10:43:43;5.97;;;3.35;;
74551;SDS011;63025;55.472;38.432;2023-03-04T10:46:14;5.05;;;2.80;;
74551;SDS011;63025;55.472;38.432;2023-03-04T10:48:41;4.50;;;2.20;;
74551;SDS011;63025;55.472;38.432;2023-03-04T10:51:10;3.25;;;2.00;;
74551;SDS011;63025;55.472;38.432;2023-03-04T10:53:40;5.10;;;2.00;;
74551;SDS011;63025;55.472;38.432;2023-03-04T11:01:53;3.33;;;1.98;;
74551;SDS011;63025;55.472;38.432;2023-03-04T11:04:19;4.90;;;2.55;;
74551;SDS011;63025;55.472;38.432;2023-03-04T11:06:50;3.03;;;1.98;;
74551;SDS011;63025;55.472;38.432;2023-03-04T11:09:23;5.18;;;2.10;;
74551;SDS011;63025;55.472;38.432;2023-03-04T11:11:51;4.20;;;2.30;;
74551;SDS011;63025;55.472;38.432;2023-03-04T11:14:23;5.47;;;2.10;;
74551;SDS011;63025;55.472;38.432;2023-03-04T11:16:57;4.10;;;1.77;;
74551;SDS011;63025;55.472;38.432;2023-03-04T11:19:27;5.43;;;2.08;;
74551;SDS011;63025;55.472;38.432;2023-03-04T11:22:04;4.63;;;2.47;;
74551;SDS011;63025;55.472;38.432;2023-03-04T11:24:30;3.60;;;1.95;;
74551;SDS011;63025;55.472;38.432;2023-03-04T11:27:04;4.90;;;1.90;;
74551;SDS011;63025;55.472;38.432;2023-03-04T11:32:23;3.80;;;1.80;;
74551;SDS011;63025;55.472;38.432;2023-03-04T11:37:23;3.65;;;2.03;;
74551;SDS011;63025;55.472;38.432;2023-03-04T11:42:43;3.85;;;1.60;;
74551;SDS011;63025;55.472;38.432;2023-03-04T11:45:44;4.22;;;1.90;;
74551;SDS011;63025;55.472;38.432;2023-03-04T11:58:53;2.88;;;1.65;;
74551;SDS011;63025;55.472;38.432;2023-03-04T12:14:45;4.63;;;2.22;;
74551;SDS011;63025;55.472;38.432;2023-03-04T12:23:24;3.70;;;2.58;;
74551;SDS011;63025;55.472;38.432;2023-03-04T12:51:33;4.90;;;2.45;;
74551;SDS011;63025;55.472;38.432;2023-03-04T12:56:52;4.85;;;2.60;;
74551;SDS011;63025;55.472;38.432;2023-03-04T12:59:24;5.45;;;2.55;;
74551;SDS011;63025;55.472;38.432;2023-03-04T13:04:43;5.38;;;2.78;;
74551;SDS011;63025;55.472;38.432;2023-03-04T13:09:46;7.43;;;3.88;;
74551;SDS011;63025;55.472;38.432;2023-03-04T13:12:21;6.57;;;2.67;;
74551;SDS011;63025;55.472;38.432;2023-03-04T13:17:35;5.47;;;2.75;;
74551;SDS011;63025;55.472;38.432;2023-03-04T13:20:49;15.50;;;8.68;;
74551;SDS011;63025;55.472;38.432;2023-03-04T13:22:57;6.90;;;3.50;;
74551;SDS011;63025;55.472;38.432;2023-03-04T13:28:37;5.70;;;3.15;;
74551;SDS011;63025;55.472;38.432;2023-03-04T13:51:34;18.02;;;10.73;;
74551;SDS011;63025;55.472;38.432;2023-03-04T13:56:46;11.07;;;6.30;;
74551;SDS011;63025;55.472;38.432;2023-03-04T14:02:08;10.63;;;5.90;;
74551;SDS011;63025;55.472;38.432;2023-03-04T14:04:38;13.48;;;6.22;;
74551;SDS011;63025;55.472;38.432;2023-03-04T14:07:26;10.50;;;5.55;;
74551;SDS011;63025;55.472;38.432;2023-03-04T14:10:37;9.45;;;5.20;;
74551;SDS011;63025;55.472;38.432;2023-03-04T14:12:40;16.27;;;7.95;;
74551;SDS011;63025;55.472;38.432;2023-03-04T14:17:43;8.43;;;5.28;;
74551;SDS011;63025;55.472;38.432;2023-03-04T14:20:31;9.75;;;5.78;;
74551;SDS011;63025;55.472;38.432;2023-03-04T14:22:59;10.90;;;5.93;;
74551;SDS011;63025;55.472;38.432;2023-03-04T14:25:35;10.27;;;5.85;;
74551;SDS011;63025;55.472;38.432;2023-03-04T14:28:11;11.23;;;5.85;;
74551;SDS011;63025;55.472;38.432;2023-03-04T14:30:41;16.90;;;8.68;;
74551;SDS011;63025;55.472;38.432;2023-03-04T14:33:16;11.73;;;6.55;;
74551;SDS011;63025;55.472;38.432;2023-03-04T14:35:49;21.50;;;10.65;;
74551;SDS011;63025;55.472;38.432;2023-03-04T14:38:22;10.77;;;6.05;;
74551;SDS011;63025;55.472;38.432;2023-03-04T14:41:01;16.10;;;9.00;;
74551;SDS011;63025;55.472;38.432;2023-03-04T14:46:18;9.98;;;5.97;;
74551;SDS011;63025;55.472;38.432;2023-03-04T14:48:49;11.43;;;5.80;;
74551;SDS011;63025;55.472;38.432;2023-03-04T14:54:06;9.73;;;5.63;;
74551;SDS011;63025;55.472;38.432;2023-03-04T14:56:49;10.30;;;5.95;;
74551;SDS011;63025;55.472;38.432;2023-03-04T14:59:14;14.18;;;7.03;;
74551;SDS011;63025;55.472;38.432;2023-03-04T15:01:40;16.05;;;8.90;;
74551;SDS011;63025;55.472;38.432;2023-03-04T15:04:07;8.82;;;5.50;;
74551;SDS011;63025;55.472;38.432;2023-03-04T15:06:36;10.18;;;6.43;;
74551;SDS011;63025;55.472;38.432;2023-03-04T15:09:15;11.82;;;6.30;;
74551;SDS011;63025;55.472;38.432;2023-03-04T15:11:48;12.63;;;6.55;;
74551;SDS011;63025;55.472;38.432;2023-03-04T15:15:02;12.18;;;6.75;;
74551;SDS011;63025;55.472;38.432;2023-03-04T15:22:25;13.45;;;7.18;;
74551;SDS011;63025;55.472;38.432;2023-03-04T15:24:51;14.10;;;7.88;;
74551;SDS011;63025;55.472;38.432;2023-03-04T15:27:17;11.25;;;6.20;;
74551;SDS011;63025;55.472;38.432;2023-03-04T15:29:48;14.57;;;7.13;;
74551;SDS011;63025;55.472;38.432;2023-03-04T15:32:14;13.10;;;7.38;;
74551;SDS011;63025;55.472;38.432;2023-03-04T15:34:41;13.95;;;8.48;;
74551;SDS011;63025;55.472;38.432;2023-03-04T15:37:08;13.27;;;8.65;;
74551;SDS011;63025;55.472;38.432;2023-03-04T15:39:42;14.30;;;8.38;;
74551;SDS011;63025;55.472;38.432;2023-03-04T15:42:08;15.45;;;8.73;;
74551;SDS011;63025;55.472;38.432;2023-03-04T15:44:37;14.35;;;7.30;;
74551;SDS011;63025;55.472;38.432;2023-03-04T15:47:08;15.23;;;8.13;;
74551;SDS011;63025;55.472;38.432;2023-03-04T15:50:00;15.32;;;8.05;;
74551;SDS011;63025;55.472;38.432;2023-03-04T15:52:26;14.35;;;7.97;;
74551;SDS011;63025;55.472;38.432;2023-03-04T15:54:52;17.00;;;8.35;;
74551;SDS011;63025;55.472;38.432;2023-03-04T15:57:25;18.17;;;11.25;;
74551;SDS011;63025;55.472;38.432;2023-03-04T15:59:52;17.42;;;9.38;;
74551;SDS011;63025;55.472;38.432;2023-03-04T16:02:19;16.45;;;10.00;;
74551;SDS011;63025;55.472;38.432;2023-03-04T16:04:47;20.48;;;10.30;;
74551;SDS011;63025;55.472;38.432;2023-03-04T16:07:15;23.70;;;10.60;;
74551;SDS011;63025;55.472;38.432;2023-03-04T16:09:43;23.30;;;11.60;;
74551;SDS011;63025;55.472;38.432;2023-03-04T16:12:11;20.70;;;10.52;;
74551;SDS011;63025;55.472;38.432;2023-03-04T16:14:38;19.38;;;10.52;;
74551;SDS011;63025;55.472;38.432;2023-03-04T16:17:04;18.73;;;9.65;;
74551;SDS011;63025;55.472;38.432;2023-03-04T16:19:29;18.88;;;9.55;;
74551;SDS011;63025;55.472;38.432;2023-03-04T16:21:55;22.23;;;10.98;;
74551;SDS011;63025;55.472;38.432;2023-03-04T16:24:21;17.42;;;9.80;;
74551;SDS011;63025;55.472;38.432;2023-03-04T16:26:47;16.60;;;8.45;;
74551;SDS011;63025;55.472;38.432;2023-03-04T16:29:17;15.25;;;8.98;;
74551;SDS011;63025;55.472;38.432;2023-03-04T16:31:42;16.65;;;9.05;;
74551;SDS011;63025;55.472;38.432;2023-03-04T16:34:08;17.45;;;9.30;;
74551;SDS011;63025;55.472;38.432;2023-03-04T16:36:34;16.20;;;8.88;;
74551;SDS011;63025;55.472;38.432;2023-03-04T16:39:02;17.33;;;10.07;;
74551;SDS011;63025;55.472;38.432;2023-03-04T16:41:37;16.63;;;9.10;;
74551;SDS011;63025;55.472;38.432;2023-03-04T16:44:02;15.77;;;8.52;;
74551;SDS011;63025;55.472;38.432;2023-03-04T16:46:28;15.50;;;8.40;;
74551;SDS011;63025;55.472;38.432;2023-03-04T16:48:57;16.52;;;8.57;;
74551;SDS011;63025;55.472;38.432;2023-03-04T16:51:23;14.20;;;7.93;;
74551;SDS011;63025;55.472;38.432;2023-03-04T16:53:51;13.18;;;8.23;;
74551;SDS011;63025;55.472;38.432;2023-03-04T16:56:20;13.75;;;7.88;;
74551;SDS011;63025;55.472;38.432;2023-03-04T16:58:46;12.25;;;7.72;;
74551;SDS011;63025;55.472;38.432;2023-03-04T17:01:20;15.02;;;7.93;;
74551;SDS011;63025;55.472;38.432;2023-03-04T17:03:47;14.05;;;7.60;;
74551;SDS011;63025;55.472;38.432;2023-03-04T17:06:13;15.40;;;7.57;;
74551;SDS011;63025;55.472;38.432;2023-03-04T17:08:40;12.07;;;6.93;;
74551;SDS011;63025;55.472;38.432;2023-03-04T17:11:09;15.73;;;7.63;;
74551;SDS011;63025;55.472;38.432;2023-03-04T17:13:36;13.50;;;7.65;;